Nearby METAR Reports

 

EBBR - Brussels Nationa, Belgium
Distance from station: W 14km
Updated: 09/04/2020 02:50
Helder
Helder
 Wind van NNW
Wind: NNW 6 km/h
Temperatuur: 11°C
Dauwpunt: 6°C
Vochtigheid: 72%
Barometer: 1023 hPa
Overzicht: Helder
Visibility: greater than 10 km
2020/04/09 00:50 EBBR 090050Z 33003KT CAVOK 11/06 Q1023 NOSIG
EBBE - Beauvechain (baf, Belgium
Distance from station: ZZO 16km
Updated: 09/04/2020 02:55
Helder
Helder
 Wind van varies
Wind: varies 2 km/h
Temperatuur: 15°C
Dauwpunt: 4°C
Vochtigheid: 48%
Barometer: 1023 hPa
Clouds: Helder
Visibility: 10 km
2020/04/09 00:55 EBBE 090055Z AUTO VRB01KT 9999 NCD 15/04 Q1023 BLU
 
EBDT - Schaffen, Belgium
Distance from station: ONO 30km
Updated: 09/04/2020 02:55
Meestal bewolkt
Meestal bewolkt
 Wind van N
Wind: N 7 km/h
Temperatuur: 13°C
Dauwpunt: 7°C
Vochtigheid: 67%
Barometer: 1023 hPa
Clouds: Meestal bewolkt
Visibility: 10 km
Cloud details: Meestal bewolkt 6706 m
2020/04/09 00:55 EBDT 090055Z AUTO 01004KT 9999 BKN220/// 13/07 Q1023 BLU
EBAW - Antwerp/Deurne, Belgium
Distance from station: NNW 38km
Updated: 09/04/2020 02:50
Helder
Helder
 Wind van NNO
Wind: NNO 4 km/h
Temperatuur: 13°C
Dauwpunt: 9°C
Vochtigheid: 77%
Barometer: 1023 hPa
Clouds: Helder
Visibility: 7 km
2020/04/09 00:50 EBAW 090050Z AUTO 02002KT 7000 // NCD 13/09 Q1023